Date,TemperatureHighF,TemperatureAvgF,TemperatureLowF,DewpointHighF,DewpointAvgF,DewpointLowF,HumidityHigh,HumidityAvg,HumidityLow,PressureMaxIn,PressureMinIn,WindSpeedMaxMPH,WindSpeedAvgMPH,GustSpeedMaxMPH,PrecipitationSumIn
2013-1-1,20.6,17.6,15.0,14.0,12.6,11.0,87,80,72,32.50,32.50,20,7,25,0.00
2013-1-2,20.2,15.6,13.0,14.0,11.2,10.0,90,83,72,32.50,32.50,6,2,9,0.00
2013-1-3,24.9,18.0,12.9,14.0,11.0,9.0,87,75,58,32.50,32.50,7,2,10,0.00
2013-1-4,31.2,24.9,16.8,25.0,16.1,9.0,85,70,52,32.50,32.46,11,4,14,0.00
2013-1-5,33.7,29.2,26.5,25.0,22.0,20.0,84,75,61,32.47,32.24,10,4,12,0.00
2013-1-6,31.6,28.1,24.3,24.0,18.1,-99.9,83,71,61,32.24,32.10,22,-16,26,0.00
2013-1-7,36.8,30.7,27.1,28.0,23.3,19.0,84,74,66,32.13,31.84,19,6,21,0.00
2013-1-8,37.9,33.7,31.2,31.0,24.4,19.0,81,69,60,32.13,31.85,32,11,41,0.01
2013-1-9,39.6,36.5,28.9,33.0,30.1,27.0,95,78,63,31.97,31.59,33,9,39,0.08
2013-1-10,28.9,23.2,12.7,27.0,21.0,7.0,95,91,79,31.93,31.64,25,14,34,0.08
2013-1-11,12.5,10.8,7.8,7.0,1.3,-99.9,87,75,74,32.47,31.94,18,-34,24,0.00
2013-1-12,13.8,7.9,4.0,8.0,4.4,1.0,89,85,77,32.50,32.48,10,3,13,0.00
2013-1-13,10.9,7.6,5.0,6.0,3.4,1.0,88,82,74,32.50,32.50,8,2,9,0.00
2013-1-14,16.2,10.7,4.9,13.0,6.4,1.0,87,82,76,32.50,32.50,11,3,18,0.00
2013-1-15,28.2,22.5,15.7,21.0,18.1,13.0,91,83,75,32.50,32.50,16,4,24,0.00
2013-1-16,39.6,32.0,25.3,22.0,19.1,17.0,78,60,44,32.50,32.50,10,3,17,0.00
2013-1-17,39.3,31.9,24.7,20.0,17.9,16.0,78,57,40,32.50,32.38,11,5,15,0.01
2013-1-18,45.7,37.4,30.3,17.0,9.8,-99.9,55,36,25,32.40,32.12,32,-21,37,0.00
2013-1-19,41.6,29.8,31.7,15.0,-10.0,-99.9,42,28,28,32.36,32.23,11,-188,16,0.00
2013-1-20,43.7,37.3,32.4,18.0,13.3,10.0,43,38,31,32.43,32.33,9,4,13,0.00
2013-1-21,46.5,37.2,30.6,19.0,14.0,10.0,52,40,27,32.34,32.17,15,4,17,0.00
2013-1-22,40.7,34.7,28.5,15.0,10.1,5.0,48,37,24,32.28,32.15,12,4,14,0.00
2013-1-23,43.6,37.3,33.0,30.0,15.3,10.0,68,42,29,32.19,31.92,15,8,21,0.00
2013-1-24,36.9,34.7,31.9,33.0,26.9,23.0,91,73,59,32.20,31.94,23,10,31,0.01
2013-1-25,38.5,35.7,32.0,33.0,28.6,24.0,94,76,65,32.20,31.90,16,6,18,0.03
2013-1-26,38.1,31.4,28.3,33.0,19.6,-99.9,93,77,73,31.91,31.78,29,-53,37,0.03
2013-1-27,30.1,26.4,23.4,22.0,19.2,17.0,86,74,61,32.00,31.88,21,6,24,0.00
2013-1-28,27.7,23.6,20.9,21.0,17.7,15.0,92,79,61,32.01,31.89,17,6,19,0.00
2013-1-29,25.7,22.9,21.6,23.0,20.2,19.0,93,89,81,32.27,31.91,20,6,27,0.01
2013-1-30,35.1,27.0,23.5,28.0,9.9,-99.9,94,71,68,32.22,32.12,44,-113,49,0.01
2013-1-31,36.4,31.6,33.9,30.0,15.0,-99.9,86,68,68,32.22,32.12,37,-94,46,0.00